Aviation Digital Data Service (ADDS)

Output produced by METARs form (2052 UTC 20 August 2019)
found at http://www.aviationweather.gov/metar/data/
 
METAR text: PAFA 201953Z 36004KT 10SM FEW080 BKN200 13/03 A2982 RMK AO2 SLP104 T01330028
Conditions at: PAFA (FAIRBANKS , AK, US) observed 1953 UTC 20 August 2019
Temperature: 13.3°C (56°F)
Dewpoint: 2.8°C (37°F) [RH = 49%]
Pressure (altimeter): 29.82 inches Hg (1009.9 mb)
[Sea-level pressure: 1010.4 mb]
Winds: from the N (360 degrees) at 5 MPH (4 knots; 2.1 m/s)
Visibility: 10 or more miles (16+ km)
Ceiling: 20000 feet AGL
Clouds: few clouds at 8000 feet AGL
broken clouds at 20000 feet AGL
Weather: no significant weather observed at this time

METAR text: PAFA 201853Z 06003KT 10SM FEW080 BKN200 12/03 A2983 RMK AO2 SLP108 T01170028
Conditions at: PAFA (FAIRBANKS , AK, US) observed 1853 UTC 20 August 2019
Temperature: 11.7°C (53°F)
Dewpoint: 2.8°C (37°F) [RH = 54%]
Pressure (altimeter): 29.83 inches Hg (1010.2 mb)
[Sea-level pressure: 1010.8 mb]
Winds: from the ENE (60 degrees) at 3 MPH (3 knots; 1.5 m/s)
Visibility: 10 or more miles (16+ km)
Ceiling: 20000 feet AGL
Clouds: few clouds at 8000 feet AGL
broken clouds at 20000 feet AGL
Weather: no significant weather observed at this time

METAR text: PAFA 201753Z 03006KT 10SM SCT080 BKN200 09/03 A2985 RMK AO2 SLP112 T00940028 10094 20050 58005
Conditions at: PAFA (FAIRBANKS , AK, US) observed 1753 UTC 20 August 2019
Temperature: 9.4°C (49°F)
Dewpoint: 2.8°C (37°F) [RH = 63%]
Pressure (altimeter): 29.85 inches Hg (1010.9 mb)
[Sea-level pressure: 1011.2 mb]
Winds: from the NNE (30 degrees) at 7 MPH (6 knots; 3.1 m/s)
Visibility: 10 or more miles (16+ km)
Ceiling: 20000 feet AGL
Clouds: scattered clouds at 8000 feet AGL
broken clouds at 20000 feet AGL
Weather: no significant weather observed at this time

METAR text: PAFA 201653Z 01006KT 10SM SCT080 BKN200 08/02 A2986 RMK AO2 SLP116 T00830022
Conditions at: PAFA (FAIRBANKS , AK, US) observed 1653 UTC 20 August 2019
Temperature: 8.3°C (47°F)
Dewpoint: 2.2°C (36°F) [RH = 65%]
Pressure (altimeter): 29.86 inches Hg (1011.3 mb)
[Sea-level pressure: 1011.6 mb]
Winds: from the N (10 degrees) at 7 MPH (6 knots; 3.1 m/s)
Visibility: 10 or more miles (16+ km)
Ceiling: 20000 feet AGL
Clouds: scattered clouds at 8000 feet AGL
broken clouds at 20000 feet AGL
Weather: no significant weather observed at this time

METAR text: PAFA 201553Z 02004KT 10SM SCT080 SCT200 07/02 A2986 RMK AO2 SLP115 ACSL N-E AND W-NW T00720017
Conditions at: PAFA (FAIRBANKS , AK, US) observed 1553 UTC 20 August 2019
Temperature: 7.2°C (45°F)
Dewpoint: 1.7°C (35°F) [RH = 68%]
Pressure (altimeter): 29.86 inches Hg (1011.3 mb)
[Sea-level pressure: 1011.5 mb]
Winds: from the NNE (20 degrees) at 5 MPH (4 knots; 2.1 m/s)
Visibility: 10 or more miles (16+ km)
Ceiling: at least 12,000 feet AGL
Clouds: scattered clouds at 8000 feet AGL
scattered clouds at 20000 feet AGL
Weather: no significant weather observed at this time

METAR text: PAFA 201453Z 01005KT 10SM SCT080 SCT200 06/01 A2986 RMK AO2 SLP117 ACSL N-E AND W-NW T00560011 56005
Conditions at: PAFA (FAIRBANKS , AK, US) observed 1453 UTC 20 August 2019
Temperature: 5.6°C (42°F)
Dewpoint: 1.1°C (34°F) [RH = 73%]
Pressure (altimeter): 29.86 inches Hg (1011.3 mb)
[Sea-level pressure: 1011.7 mb]
Winds: from the N (10 degrees) at 6 MPH (5 knots; 2.6 m/s)
Visibility: 10 or more miles (16+ km)
Ceiling: at least 12,000 feet AGL
Clouds: scattered clouds at 8000 feet AGL
scattered clouds at 20000 feet AGL
Weather: no significant weather observed at this time

METAR text: PAFA 201353Z 02007KT 10SM FEW080 SCT200 06/01 A2986 RMK AO2 SLP118 T00560011
Conditions at: PAFA (FAIRBANKS , AK, US) observed 1353 UTC 20 August 2019
Temperature: 5.6°C (42°F)
Dewpoint: 1.1°C (34°F) [RH = 73%]
Pressure (altimeter): 29.86 inches Hg (1011.3 mb)
[Sea-level pressure: 1011.8 mb]
Winds: from the NNE (20 degrees) at 8 MPH (7 knots; 3.6 m/s)
Visibility: 10 or more miles (16+ km)
Ceiling: at least 12,000 feet AGL
Clouds: few clouds at 8000 feet AGL
scattered clouds at 20000 feet AGL
Weather: no significant weather observed at this time

METAR text: PAFA 201253Z 01007KT 10SM FEW080 SCT200 06/01 A2987 RMK AO2 SLP120 T00560011
Conditions at: PAFA (FAIRBANKS , AK, US) observed 1253 UTC 20 August 2019
Temperature: 5.6°C (42°F)
Dewpoint: 1.1°C (34°F) [RH = 73%]
Pressure (altimeter): 29.87 inches Hg (1011.6 mb)
[Sea-level pressure: 1012.0 mb]
Winds: from the N (10 degrees) at 8 MPH (7 knots; 3.6 m/s)
Visibility: 10 or more miles (16+ km)
Ceiling: at least 12,000 feet AGL
Clouds: few clouds at 8000 feet AGL
scattered clouds at 20000 feet AGL
Weather: no significant weather observed at this time

METAR text: PAFA 201153Z 36005KT 10SM FEW080 07/01 A2988 RMK AO2 SLP122 T00670011 10100 20061 57010
Conditions at: PAFA (FAIRBANKS , AK, US) observed 1153 UTC 20 August 2019
Temperature: 6.7°C (44°F)
Dewpoint: 1.1°C (34°F) [RH = 67%]
Pressure (altimeter): 29.88 inches Hg (1011.9 mb)
[Sea-level pressure: 1012.2 mb]
Winds: from the N (360 degrees) at 6 MPH (5 knots; 2.6 m/s)
Visibility: 10 or more miles (16+ km)
Ceiling: at least 12,000 feet AGL
Clouds: few clouds at 8000 feet AGL
Weather: no significant weather observed at this time

METAR text: PAFA 201053Z 35008KT 10SM FEW080 07/02 A2989 RMK AO2 SLP125 T00720017
Conditions at: PAFA (FAIRBANKS , AK, US) observed 1053 UTC 20 August 2019
Temperature: 7.2°C (45°F)
Dewpoint: 1.7°C (35°F) [RH = 68%]
Pressure (altimeter): 29.89 inches Hg (1012.3 mb)
[Sea-level pressure: 1012.5 mb]
Winds: from the N (350 degrees) at 9 MPH (8 knots; 4.1 m/s)
Visibility: 10 or more miles (16+ km)
Ceiling: at least 12,000 feet AGL
Clouds: few clouds at 8000 feet AGL
Weather: no significant weather observed at this time

METAR text: PAFA 200953Z 35006KT 10SM FEW080 07/02 A2989 RMK AO2 SLP129 T00720017
Conditions at: PAFA (FAIRBANKS , AK, US) observed 0953 UTC 20 August 2019
Temperature: 7.2°C (45°F)
Dewpoint: 1.7°C (35°F) [RH = 68%]
Pressure (altimeter): 29.89 inches Hg (1012.3 mb)
[Sea-level pressure: 1012.9 mb]
Winds: from the N (350 degrees) at 7 MPH (6 knots; 3.1 m/s)
Visibility: 10 or more miles (16+ km)
Ceiling: at least 12,000 feet AGL
Clouds: few clouds at 8000 feet AGL
Weather: no significant weather observed at this time

METAR text: PAFA 200853Z 34006KT 10SM FEW080 06/02 A2991 RMK AO2 SLP133 T00610022 401610028 58002
Conditions at: PAFA (FAIRBANKS , AK, US) observed 0853 UTC 20 August 2019
Temperature: 6.1°C (43°F)
Dewpoint: 2.2°C (36°F) [RH = 76%]
Pressure (altimeter): 29.91 inches Hg (1013.0 mb)
[Sea-level pressure: 1013.3 mb]
Winds: from the NNW (340 degrees) at 7 MPH (6 knots; 3.1 m/s)
Visibility: 10 or more miles (16+ km)
Ceiling: at least 12,000 feet AGL
Clouds: few clouds at 8000 feet AGL
Weather: no significant weather observed at this time

METAR text: PAFA 200753Z 36006KT 10SM FEW080 08/02 A2992 RMK AO2 SLP136 T00780022
Conditions at: PAFA (FAIRBANKS , AK, US) observed 0753 UTC 20 August 2019
Temperature: 7.8°C (46°F)
Dewpoint: 2.2°C (36°F) [RH = 68%]
Pressure (altimeter): 29.92 inches Hg (1013.3 mb)
[Sea-level pressure: 1013.6 mb]
Winds: from the N (360 degrees) at 7 MPH (6 knots; 3.1 m/s)
Visibility: 10 or more miles (16+ km)
Ceiling: at least 12,000 feet AGL
Clouds: few clouds at 8000 feet AGL
Weather: no significant weather observed at this time

METAR text: PAFA 200653Z 35004KT 10SM FEW070 09/03 A2992 RMK AO2 SLP136 T00890028
Conditions at: PAFA (FAIRBANKS , AK, US) observed 0653 UTC 20 August 2019
Temperature: 8.9°C (48°F)
Dewpoint: 2.8°C (37°F) [RH = 66%]
Pressure (altimeter): 29.92 inches Hg (1013.3 mb)
[Sea-level pressure: 1013.6 mb]
Winds: from the N (350 degrees) at 5 MPH (4 knots; 2.1 m/s)
Visibility: 10 or more miles (16+ km)
Ceiling: at least 12,000 feet AGL
Clouds: few clouds at 7000 feet AGL
Weather: no significant weather observed at this time

METAR text: PAFA 200553Z 04006KT 10SM FEW070 10/03 A2991 RMK AO2 SLP135 T01000028 10161 20100 56006
Conditions at: PAFA (FAIRBANKS , AK, US) observed 0553 UTC 20 August 2019
Temperature: 10.0°C (50°F)
Dewpoint: 2.8°C (37°F) [RH = 61%]
Pressure (altimeter): 29.91 inches Hg (1013.0 mb)
[Sea-level pressure: 1013.5 mb]
Winds: from the NE (40 degrees) at 7 MPH (6 knots; 3.1 m/s)
Visibility: 10 or more miles (16+ km)
Ceiling: at least 12,000 feet AGL
Clouds: few clouds at 7000 feet AGL
Weather: no significant weather observed at this time

METAR text: PAFA 200453Z 06006KT 10SM FEW065 FEW200 12/02 A2991 RMK AO2 SLP135 T01220022
Conditions at: PAFA (FAIRBANKS , AK, US) observed 0453 UTC 20 August 2019
Temperature: 12.2°C (54°F)
Dewpoint: 2.2°C (36°F) [RH = 50%]
Pressure (altimeter): 29.91 inches Hg (1013.0 mb)
[Sea-level pressure: 1013.5 mb]
Winds: from the ENE (60 degrees) at 7 MPH (6 knots; 3.1 m/s)
Visibility: 10 or more miles (16+ km)
Ceiling: at least 12,000 feet AGL
Clouds: few clouds at 6500 feet AGL
few clouds at 20000 feet AGL
Weather: no significant weather observed at this time

METAR text: PAFA 200353Z 07005KT 10SM SCT065 SCT200 14/02 A2992 RMK AO2 SLP137 T01440017
Conditions at: PAFA (FAIRBANKS , AK, US) observed 0353 UTC 20 August 2019
Temperature: 14.4°C (58°F)
Dewpoint: 1.7°C (35°F) [RH = 42%]
Pressure (altimeter): 29.92 inches Hg (1013.3 mb)
[Sea-level pressure: 1013.7 mb]
Winds: from the ENE (70 degrees) at 6 MPH (5 knots; 2.6 m/s)
Visibility: 10 or more miles (16+ km)
Ceiling: at least 12,000 feet AGL
Clouds: scattered clouds at 6500 feet AGL
scattered clouds at 20000 feet AGL
Weather: no significant weather observed at this time

METAR text: PAFA 200253Z 07004KT 10SM BKN065 BKN200 15/01 A2993 RMK AO2 SLP141 T01500011 56012
Conditions at: PAFA (FAIRBANKS , AK, US) observed 0253 UTC 20 August 2019
Temperature: 15.0°C (59°F)
Dewpoint: 1.1°C (34°F) [RH = 39%]
Pressure (altimeter): 29.93 inches Hg (1013.6 mb)
[Sea-level pressure: 1014.1 mb]
Winds: from the ENE (70 degrees) at 5 MPH (4 knots; 2.1 m/s)
Visibility: 10 or more miles (16+ km)
Ceiling: 6500 feet AGL
Clouds: broken clouds at 6500 feet AGL
broken clouds at 20000 feet AGL
Weather: no significant weather observed at this time

METAR text: PAFA 200153Z 02009KT 10SM BKN065 BKN200 15/02 A2994 RMK AO2 SLP145 T01500017
Conditions at: PAFA (FAIRBANKS , AK, US) observed 0153 UTC 20 August 2019
Temperature: 15.0°C (59°F)
Dewpoint: 1.7°C (35°F) [RH = 41%]
Pressure (altimeter): 29.94 inches Hg (1014.0 mb)
[Sea-level pressure: 1014.5 mb]
Winds: from the NNE (20 degrees) at 10 MPH (9 knots; 4.6 m/s)
Visibility: 10 or more miles (16+ km)
Ceiling: 6500 feet AGL
Clouds: broken clouds at 6500 feet AGL
broken clouds at 20000 feet AGL
Weather: no significant weather observed at this time

METAR text: PAFA 200053Z 04007KT 10SM SCT065 BKN200 16/02 A2995 RMK AO2 SLP147 T01560017
Conditions at: PAFA (FAIRBANKS , AK, US) observed 0053 UTC 20 August 2019
Temperature: 15.6°C (60°F)
Dewpoint: 1.7°C (35°F) [RH = 39%]
Pressure (altimeter): 29.95 inches Hg (1014.3 mb)
[Sea-level pressure: 1014.7 mb]
Winds: from the NE (40 degrees) at 8 MPH (7 knots; 3.6 m/s)
Visibility: 10 or more miles (16+ km)
Ceiling: 20000 feet AGL
Clouds: scattered clouds at 6500 feet AGL
broken clouds at 20000 feet AGL
Weather: no significant weather observed at this time

METAR text: PAFA 192353Z 13004KT 10SM SCT065 BKN200 16/01 A2997 RMK AO2 SLP154 T01560011 10156 20089 56020
Conditions at: PAFA (FAIRBANKS , AK, US) observed 2353 UTC 19 August 2019
Temperature: 15.6°C (60°F)
Dewpoint: 1.1°C (34°F) [RH = 37%]
Pressure (altimeter): 29.97 inches Hg (1015.0 mb)
[Sea-level pressure: 1015.4 mb]
Winds: from the SE (130 degrees) at 5 MPH (4 knots; 2.1 m/s)
Visibility: 10 or more miles (16+ km)
Ceiling: 20000 feet AGL
Clouds: scattered clouds at 6500 feet AGL
broken clouds at 20000 feet AGL
Weather: no significant weather observed at this time

METAR text: PAFA 192253Z 11008KT 10SM SCT065 SCT200 14/00 A2998 RMK AO2 SLP158 T01440000
Conditions at: PAFA (FAIRBANKS , AK, US) observed 2253 UTC 19 August 2019
Temperature: 14.4°C (58°F)
Dewpoint: 0.0°C (32°F) [RH = 37%]
Pressure (altimeter): 29.98 inches Hg (1015.3 mb)
[Sea-level pressure: 1015.8 mb]
Winds: from the ESE (110 degrees) at 9 MPH (8 knots; 4.1 m/s)
Visibility: 10 or more miles (16+ km)
Ceiling: at least 12,000 feet AGL
Clouds: scattered clouds at 6500 feet AGL
scattered clouds at 20000 feet AGL
Weather: no significant weather observed at this time

METAR text: PAFA 192153Z 12008KT 10SM SCT065 SCT200 14/01 A3000 RMK AO2 SLP165 T01390006
Conditions at: PAFA (FAIRBANKS , AK, US) observed 2153 UTC 19 August 2019
Temperature: 13.9°C (57°F)
Dewpoint: 0.6°C (33°F) [RH = 40%]
Pressure (altimeter): 30.00 inches Hg (1016.0 mb)
[Sea-level pressure: 1016.5 mb]
Winds: from the ESE (120 degrees) at 9 MPH (8 knots; 4.1 m/s)
Visibility: 10 or more miles (16+ km)
Ceiling: at least 12,000 feet AGL
Clouds: scattered clouds at 6500 feet AGL
scattered clouds at 20000 feet AGL
Weather: no significant weather observed at this time

METAR text: PAFA 192053Z 08004KT 10SM FEW065 FEW200 13/M01 A3003 RMK AO2 SLP172 T01331006 57015
Conditions at: PAFA (FAIRBANKS , AK, US) observed 2053 UTC 19 August 2019
Temperature: 13.3°C (56°F)
Dewpoint: -0.6°C (31°F) [RH = 38%]
Pressure (altimeter): 30.03 inches Hg (1017.0 mb)
[Sea-level pressure: 1017.2 mb]
Winds: from the E (80 degrees) at 5 MPH (4 knots; 2.1 m/s)
Visibility: 10 or more miles (16+ km)
Ceiling: at least 12,000 feet AGL
Clouds: few clouds at 6500 feet AGL
few clouds at 20000 feet AGL
Weather: no significant weather observed at this time

METAR text: PAFA 191953Z 15004KT 10SM FEW065 FEW200 12/01 A3004 RMK AO2 SLP178 T01170011
Conditions at: PAFA (FAIRBANKS , AK, US) observed 1953 UTC 19 August 2019
Temperature: 11.7°C (53°F)
Dewpoint: 1.1°C (34°F) [RH = 48%]
Pressure (altimeter): 30.04 inches Hg (1017.4 mb)
[Sea-level pressure: 1017.8 mb]
Winds: from the SSE (150 degrees) at 5 MPH (4 knots; 2.1 m/s)
Visibility: 10 or more miles (16+ km)
Ceiling: at least 12,000 feet AGL
Clouds: few clouds at 6500 feet AGL
few clouds at 20000 feet AGL
Weather: no significant weather observed at this time

METAR text: PAFA 191853Z 00000KT 10SM FEW080 FEW200 11/01 A3006 RMK AO2 SLP184 T01060011
Conditions at: PAFA (FAIRBANKS , AK, US) observed 1853 UTC 19 August 2019
Temperature: 10.6°C (51°F)
Dewpoint: 1.1°C (34°F) [RH = 52%]
Pressure (altimeter): 30.06 inches Hg (1018.0 mb)
[Sea-level pressure: 1018.4 mb]
Winds: calm
Visibility: 10 or more miles (16+ km)
Ceiling: at least 12,000 feet AGL
Clouds: few clouds at 8000 feet AGL
few clouds at 20000 feet AGL
Weather: no significant weather observed at this time

METAR text: PAFA 191753Z 06003KT 10SM FEW080 SCT200 09/02 A3007 RMK AO2 SLP188 T00940022 10094 20028 58007
Conditions at: PAFA (FAIRBANKS , AK, US) observed 1753 UTC 19 August 2019
Temperature: 9.4°C (49°F)
Dewpoint: 2.2°C (36°F) [RH = 61%]
Pressure (altimeter): 30.07 inches Hg (1018.4 mb)
[Sea-level pressure: 1018.8 mb]
Winds: from the ENE (60 degrees) at 3 MPH (3 knots; 1.5 m/s)
Visibility: 10 or more miles (16+ km)
Ceiling: at least 12,000 feet AGL
Clouds: few clouds at 8000 feet AGL
scattered clouds at 20000 feet AGL
Weather: no significant weather observed at this time

METAR text: PAFA 191653Z 00000KT 10SM FEW080 SCT200 07/03 A3008 RMK AO2 SLP191 T00720028
Conditions at: PAFA (FAIRBANKS , AK, US) observed 1653 UTC 19 August 2019
Temperature: 7.2°C (45°F)
Dewpoint: 2.8°C (37°F) [RH = 74%]
Pressure (altimeter): 30.08 inches Hg (1018.7 mb)
[Sea-level pressure: 1019.1 mb]
Winds: calm
Visibility: 10 or more miles (16+ km)
Ceiling: at least 12,000 feet AGL
Clouds: few clouds at 8000 feet AGL
scattered clouds at 20000 feet AGL
Weather: no significant weather observed at this time

METAR text: PAFA 191553Z 05003KT 10SM FEW080 SCT200 05/02 A3009 RMK AO2 SLP194 T00500022
Conditions at: PAFA (FAIRBANKS , AK, US) observed 1553 UTC 19 August 2019
Temperature: 5.0°C (41°F)
Dewpoint: 2.2°C (36°F) [RH = 82%]
Pressure (altimeter): 30.09 inches Hg (1019.0 mb)
[Sea-level pressure: 1019.4 mb]
Winds: from the NE (50 degrees) at 3 MPH (3 knots; 1.5 m/s)
Visibility: 10 or more miles (16+ km)
Ceiling: at least 12,000 feet AGL
Clouds: few clouds at 8000 feet AGL
scattered clouds at 20000 feet AGL
Weather: no significant weather observed at this time

METAR text: PAFA 191453Z 00000KT 10SM BKN080 BKN200 04/01 A3009 RMK AO2 SLP196 T00440011 56009
Conditions at: PAFA (FAIRBANKS , AK, US) observed 1453 UTC 19 August 2019
Temperature: 4.4°C (40°F)
Dewpoint: 1.1°C (34°F) [RH = 79%]
Pressure (altimeter): 30.09 inches Hg (1019.0 mb)
[Sea-level pressure: 1019.6 mb]
Winds: calm
Visibility: 10 or more miles (16+ km)
Ceiling: 8000 feet AGL
Clouds: broken clouds at 8000 feet AGL
broken clouds at 20000 feet AGL
Weather: no significant weather observed at this time

METAR text: PAFA 191353Z 03004KT 10SM BKN080 03/01 A3010 RMK AO2 SLP200 T00330006
Conditions at: PAFA (FAIRBANKS , AK, US) observed 1353 UTC 19 August 2019
Temperature: 3.3°C (38°F)
Dewpoint: 0.6°C (33°F) [RH = 82%]
Pressure (altimeter): 30.10 inches Hg (1019.4 mb)
[Sea-level pressure: 1020.0 mb]
Winds: from the NNE (30 degrees) at 5 MPH (4 knots; 2.1 m/s)
Visibility: 10 or more miles (16+ km)
Ceiling: 8000 feet AGL
Clouds: broken clouds at 8000 feet AGL
Weather: no significant weather observed at this time

METAR text: PAFA 191253Z 00000KT 10SM SCT110 04/02 A3011 RMK AO2 SLP201 T00440017
Conditions at: PAFA (FAIRBANKS , AK, US) observed 1253 UTC 19 August 2019
Temperature: 4.4°C (40°F)
Dewpoint: 1.7°C (35°F) [RH = 83%]
Pressure (altimeter): 30.11 inches Hg (1019.7 mb)
[Sea-level pressure: 1020.1 mb]
Winds: calm
Visibility: 10 or more miles (16+ km)
Ceiling: at least 12,000 feet AGL
Clouds: scattered clouds at 11000 feet AGL
Weather: no significant weather observed at this time

METAR text: PAFA 191153Z 00000KT 10SM SCT060 05/02 A3012 RMK AO2 SLP205 T00500022 10111 20050 56017
Conditions at: PAFA (FAIRBANKS , AK, US) observed 1153 UTC 19 August 2019
Temperature: 5.0°C (41°F)
Dewpoint: 2.2°C (36°F) [RH = 82%]
Pressure (altimeter): 30.12 inches Hg (1020.1 mb)
[Sea-level pressure: 1020.5 mb]
Winds: calm
Visibility: 10 or more miles (16+ km)
Ceiling: at least 12,000 feet AGL
Clouds: scattered clouds at 6000 feet AGL
Weather: no significant weather observed at this time

METAR text: PAFA 191053Z 02003KT 10SM SCT060 07/02 A3013 RMK AO2 SLP209 T00670017
Conditions at: PAFA (FAIRBANKS , AK, US) observed 1053 UTC 19 August 2019
Temperature: 6.7°C (44°F)
Dewpoint: 1.7°C (35°F) [RH = 70%]
Pressure (altimeter): 30.13 inches Hg (1020.4 mb)
[Sea-level pressure: 1020.9 mb]
Winds: from the NNE (20 degrees) at 3 MPH (3 knots; 1.5 m/s)
Visibility: 10 or more miles (16+ km)
Ceiling: at least 12,000 feet AGL
Clouds: scattered clouds at 6000 feet AGL
Weather: no significant weather observed at this time

METAR text: PAFA 190953Z 00000KT 10SM SCT065 07/02 A3016 RMK AO2 SLP217 T00720022
Conditions at: PAFA (FAIRBANKS , AK, US) observed 0953 UTC 19 August 2019
Temperature: 7.2°C (45°F)
Dewpoint: 2.2°C (36°F) [RH = 70%]
Pressure (altimeter): 30.16 inches Hg (1021.4 mb)
[Sea-level pressure: 1021.7 mb]
Winds: calm
Visibility: 10 or more miles (16+ km)
Ceiling: at least 12,000 feet AGL
Clouds: scattered clouds at 6500 feet AGL
Weather: no significant weather observed at this time

METAR text: PAFA 190853Z 05003KT 10SM BKN065 09/03 A3017 RMK AO2 SLP221 T00940033 401560050 58013
Conditions at: PAFA (FAIRBANKS , AK, US) observed 0853 UTC 19 August 2019
Temperature: 9.4°C (49°F)
Dewpoint: 3.3°C (38°F) [RH = 66%]
Pressure (altimeter): 30.17 inches Hg (1021.8 mb)
[Sea-level pressure: 1022.1 mb]
Winds: from the NE (50 degrees) at 3 MPH (3 knots; 1.5 m/s)
Visibility: 10 or more miles (16+ km)
Ceiling: 6500 feet AGL
Clouds: broken clouds at 6500 feet AGL
Weather: no significant weather observed at this time

Forecast for: PAFA (FAIRBANKS , AK, US)
Text: PAFA 201721Z 2018/2124 01005KT P6SM SCT080 BKN250
Forecast period: 1800 UTC 20 August 2019 to 1200 UTC 21 August 2019
Forecast type: FROM: standard forecast or significant change
Winds: from the N (10 degrees) at 6 MPH (5 knots; 2.6 m/s)
Visibility: 6 or more miles 10+ km)
Ceiling: 25000 feet AGL
Clouds: scattered clouds at 8000 feet AGL
broken clouds at 25000 feet AGL
Weather: no significant weather forecast for this period
Text: FM211200 VRB03KT 5SM BR VCSH OVC020
Forecast period: 1200 to 1400 UTC 21 August 2019
Forecast type: FROM: standard forecast or significant change
Winds: variable direction winds at 3 MPH (3 knots; 1.5 m/s)
Visibility: 5 miles (8 km)
Ceiling: 2000 feet AGL
Clouds: overcast cloud deck at 2000 feet AGL
Weather: BR VCSH  (mist, showers in vicinity)
Text: FM211400 VRB03KT 5SM -RA BR OVC015
Forecast period: 1400 UTC 21 August 2019 to 0000 UTC 22 August 2019
Forecast type: FROM: standard forecast or significant change
Winds: variable direction winds at 3 MPH (3 knots; 1.5 m/s)
Visibility: 5 miles (8 km)
Ceiling: 1500 feet AGL
Clouds: overcast cloud deck at 1500 feet AGL
Weather: -RA BR  (light rain, mist)